Fernando Pessoa — CSKQ — position and weather

sailwx.info

Track history (hours):
 
Tides and Currents Weather Stations Pressure Air Temp Water Temp Dewpoint Dewpoint Depression Visibility Wind Speed Wind Dir Waves Ship Positions

Fernando Pessoa

Last reported at 2017-Mar-27 21:33 UTC. Time now 2017-Mar-28 02:31 UTC.
Position N 38°39' W 009°05'.

Length 49 m.

MMSI: 263701470.

Date/timePositionNaut miles runAvg speedWind from/ knotsBaromVisibWave heightAir tempDewpointWater temp
2017-Mar-27 21:33N 38°39' W 009°05'0 0.0
2017-Mar-27 20:33N 38°39' W 009°05'0 0.1
2017-Mar-27 19:33N 38°39' W 009°05'4 3.6
2017-Mar-27 18:33N 38°42' W 009°08'2 1.8
2017-Mar-27 17:34N 38°40' W 009°07'2 2.0
2017-Mar-27 16:33N 38°39' W 009°05'0 0.0
2017-Mar-27 15:33N 38°39' W 009°05'0 0.0
2017-Mar-27 14:33N 38°39' W 009°05'0 0.1
2017-Mar-27 13:31N 38°39' W 009°05'0 0.0
2017-Mar-27 12:32N 38°39' W 009°05'0 0.0
2017-Mar-27 11:33N 38°39' W 009°05'0 0.0
2017-Mar-27 10:33N 38°39' W 009°05'0 0.1
2017-Mar-27 09:33N 38°39' W 009°05'1 1.3
2017-Mar-27 08:34N 38°40' W 009°06'1 0.6
2017-Mar-27 07:33N 38°39' W 009°06'1 0.8
2017-Mar-27 06:33N 38°39' W 009°05'0 0.0
2017-Mar-25 22:33N 38°39' W 009°05'2 1.7
2017-Mar-25 21:33N 38°40' W 009°07'0 0.4
2017-Mar-25 20:33N 38°40' W 009°06'1 1.2
2017-Mar-25 19:34N 38°41' W 009°08'0 0.0
2017-Mar-25 18:34N 38°41' W 009°08'0 0.4
2017-Mar-25 17:33N 38°41' W 009°08'0 0.3
2017-Mar-25 16:33N 38°41' W 009°08'0 0.1
2017-Mar-25 15:33N 38°41' W 009°08'3 2.8
2017-Mar-25 14:33N 38°39' W 009°05'0 0.0
2017-Mar-25 13:33N 38°39' W 009°05'2 1.6
2017-Mar-25 12:33N 38°40' W 009°07'0 0.2
2017-Mar-25 11:34N 38°40' W 009°07'0 0.3
2017-Mar-25 10:33N 38°40' W 009°06'0 0.1
2017-Mar-25 09:33N 38°40' W 009°07'0 0.1
2017-Mar-25 08:34N 38°40' W 009°06'0 0.1
2017-Mar-25 07:33N 38°40' W 009°06'1 1.4
2017-Mar-25 06:33N 38°41' W 009°08'1 0.9
2017-Mar-25 05:34N 38°42' W 009°08'4 1.2
2017-Mar-25 02:26N 38°39' W 009°05'0 0.3
2017-Mar-25 01:33N 38°39' W 009°05'0 0.1
2017-Mar-25 00:33N 38°39' W 009°05'0 0.2
2017-Mar-24 23:33N 38°39' W 009°05'1 1.1
2017-Mar-24 22:33N 38°40' W 009°06'0 0.4
2017-Mar-24 21:33N 38°40' W 009°07'2 1.7
2017-Mar-24 20:34N 38°39' W 009°05'0 0.0
2017-Mar-24 19:33N 38°39' W 009°05'2 2.0
2017-Mar-24 18:33N 38°40' W 009°07'2 2.2
2017-Mar-24 17:33N 38°42' W 009°08'0 0.2
2017-Mar-24 16:34N 38°42' W 009°08'1 1.0
2017-Mar-24 15:33N 38°41' W 009°08'0 0.1
2017-Mar-24 14:33N 38°41' W 009°08'0 0.2
2017-Mar-24 13:34N 38°41' W 009°08'0 0.1
2017-Mar-24 12:33N 38°41' W 009°08'0 0.5
2017-Mar-24 11:33N 38°40' W 009°08'3 2.6
2017-Mar-24 10:33N 38°39' W 009°05'2 2.4
2017-Mar-24 09:33N 38°40' W 009°07'2 2.1
2017-Mar-24 08:33N 38°42' W 009°08'1 0.7
2017-Mar-24 07:33N 38°42' W 009°08'3 3.3
2017-Mar-24 06:33N 38°39' W 009°05'0 0.0
2017-Mar-23 21:27N 38°39' W 009°05'3 3.0
2017-Mar-23 20:34N 38°41' W 009°08'3 2.7
2017-Mar-23 19:33N 38°39' W 009°05'0 0.0
2017-Mar-23 18:33N 38°39' W 009°05'4 4.1
2017-Mar-23 17:33N 38°42' W 009°08'1 1.2
2017-Mar-23 16:33N 38°41' W 009°08'3 3.1
2017-Mar-23 15:33N 38°39' W 009°05'2 2.1
2017-Mar-23 14:34N 38°40' W 009°07'0 0.4
2017-Mar-23 13:33N 38°40' W 009°07'0 0.2
2017-Mar-23 12:33N 38°40' W 009°07'0 0.0
2017-Mar-23 11:34N 38°40' W 009°07'3 2.7
2017-Mar-23 10:33N 38°42' W 009°08'4 4.0
2017-Mar-23 09:33N 38°39' W 009°05'0 0.0
2017-Mar-23 08:33N 38°39' W 009°05'0 0.0
2017-Mar-23 07:33N 38°39' W 009°05'0 0.0
2017-Mar-23 06:33N 38°39' W 009°05'0 0.0
2017-Mar-23 05:33N 38°39' W 009°05'0 0.0
2017-Mar-23 04:33N 38°39' W 009°05'0 0.0
2017-Mar-23 03:33N 38°39' W 009°05'0 0.0
2017-Mar-23 02:33N 38°39' W 009°05'0 0.0
2017-Mar-23 01:33N 38°39' W 009°05'0 0.0
2017-Mar-23 00:33N 38°39' W 009°05'0 0.0
2017-Mar-22 23:33N 38°39' W 009°05'0 0.0
2017-Mar-22 22:33N 38°39' W 009°05'0 0.0
2017-Mar-22 21:33N 38°39' W 009°05'3 2.9
2017-Mar-22 20:34N 38°41' W 009°08'2 2.1
2017-Mar-22 19:33N 38°39' W 009°06'3 2.9
2017-Mar-22 18:33N 38°42' W 009°08'1 0.5
2017-Mar-22 17:34N 38°42' W 009°08'2 1.7
2017-Mar-22 16:33N 38°41' W 009°08'3 2.8
2017-Mar-22 15:33N 38°39' W 009°05'1 1.2
2017-Mar-22 14:33N 38°40' W 009°06'0 0.4
2017-Mar-22 13:32N 38°39' W 009°06'1 0.7
2017-Mar-22 12:33N 38°39' W 009°05'0 0.0
2017-Mar-22 11:33N 38°39' W 009°05'2 2.5
2017-Mar-22 10:34N 38°41' W 009°08'3 2.6
2017-Mar-22 09:34N 38°39' W 009°05'1 1.2
2017-Mar-22 08:33N 38°40' W 009°06'2 2.4
2017-Mar-22 07:34N 38°42' W 009°08'1 0.7
2017-Mar-22 06:34N 38°42' W 009°08'0 0.0
2017-Mar-22 05:34N 38°42' W 009°08'4 4.1
2017-Mar-22 04:33N 38°39' W 009°05'0 0.0
2017-Mar-22 03:33N 38°39' W 009°05'0 0.0
2017-Mar-22 02:30N 38°39' W 009°05'0 0.4
2017-Mar-22 01:33N 38°39' W 009°05'0 0.2
2017-Mar-22 00:34N 38°39' W 009°05'0 0.0
2017-Mar-21 23:33N 38°39' W 009°05'1 1.2
2017-Mar-21 22:33N 38°40' W 009°07'0 0.1
2017-Mar-21 21:33N 38°40' W 009°07'2 1.7
2017-Mar-21 20:33N 38°39' W 009°05'0 0.0
2017-Mar-21 19:32N 38°39' W 009°05'1 1.1
2017-Mar-21 18:33N 38°39' W 009°06'3 3.2
2017-Mar-21 17:33N 38°42' W 009°08'0 0.1
2017-Mar-21 16:34N 38°42' W 009°08'2 1.5
2017-Mar-21 15:33N 38°41' W 009°08'0 0.1
2017-Mar-21 14:33N 38°41' W 009°08'0 0.2
2017-Mar-21 13:33N 38°41' W 009°07'0 0.1
2017-Mar-21 12:33N 38°41' W 009°08'0 0.1
2017-Mar-21 11:33N 38°40' W 009°08'3 2.7
2017-Mar-21 10:33N 38°39' W 009°05'4 4.2
2017-Mar-21 09:33N 38°42' W 009°08'0 0.2
2017-Mar-21 08:33N 38°42' W 009°08'4 1.9
2017-Mar-21 06:33N 38°39' W 009°05'4 0.4
2017-Mar-20 20:33N 38°42' W 009°08'0 0.1
2017-Mar-20 19:33N 38°42' W 009°08'0 0.4
2017-Mar-20 18:34N 38°42' W 009°08'3 2.6
2017-Mar-20 17:33N 38°40' W 009°07'2 1.7
2017-Mar-20 16:32N 38°39' W 009°05'1 1.3
2017-Mar-20 15:33N 38°40' W 009°06'1 1.3
2017-Mar-20 14:33N 38°39' W 009°05'0 0.0
2017-Mar-20 13:34N 38°39' W 009°05'0 0.0
2017-Mar-20 12:34N 38°39' W 009°05'0 0.0
2017-Mar-20 11:33N 38°39' W 009°05'2 1.6
2017-Mar-20 10:34N 38°40' W 009°07'0 0.2
2017-Mar-20 09:33N 38°40' W 009°06'1 1.2
2017-Mar-20 08:34N 38°41' W 009°08'3 2.6
2017-Mar-20 07:33N 38°39' W 009°05'0 0.0
2017-Mar-20 06:33N 38°39' W 009°05'0 0.0
2017-Mar-20 05:33N 38°39' W 009°05'0 0.0
2017-Mar-20 04:33N 38°39' W 009°05'0 0.0
2017-Mar-20 03:33N 38°39' W 009°05'0 0.0
2017-Mar-20 02:33N 38°39' W 009°05'0 0.0
2017-Mar-20 01:33N 38°39' W 009°05'0 0.0
2017-Mar-20 00:33N 38°39' W 009°05'3 0.9
2017-Mar-19 21:33N 38°41' W 009°08'3 2.7
2017-Mar-19 20:34N 38°39' W 009°05'2 2.0
2017-Mar-19 19:33N 38°40' W 009°07'0 0.3
2017-Mar-19 18:33N 38°40' W 009°07'0 0.0
2017-Mar-19 17:34N 38°40' W 009°07'0 0.1
2017-Mar-19 16:33N 38°40' W 009°07'0 0.2
2017-Mar-19 15:33N 38°40' W 009°07'0 0.3
2017-Mar-19 14:33N 38°40' W 009°06'0 0.3
2017-Mar-19 13:33N 38°39' W 009°06'1 0.9
2017-Mar-19 12:33N 38°39' W 009°05'0 0.0
2017-Mar-19 11:33N 38°39' W 009°05'0 0.0
2017-Mar-19 10:33N 38°39' W 009°05'0 0.0
2017-Mar-19 09:33N 38°39' W 009°05'4 3.5
2017-Mar-19 08:32N 38°42' W 009°07'4 3.6
2017-Mar-19 07:34N 38°39' W 009°05'0 0.3
2017-Mar-19 06:33N 38°39' W 009°05'0 0.3
2017-Mar-19 05:33N 38°39' W 009°05'0 0.0
2017-Mar-18 22:07N 38°39' W 009°05'3 4.9
2017-Mar-18 21:33N 38°41' W 009°08'3 2.8
2017-Mar-18 20:33N 38°39' W 009°05'2 2.0
2017-Mar-18 19:33N 38°40' W 009°07'0 0.4
2017-Mar-18 18:34N 38°40' W 009°07'0 0.3
2017-Mar-18 17:33N 38°40' W 009°07'0 0.1
2017-Mar-18 16:34N 38°40' W 009°07'0 0.2
2017-Mar-18 15:33N 38°40' W 009°07'1 1.1
2017-Mar-18 14:33N 38°39' W 009°05'1 0.9
2017-Mar-18 13:34N 38°40' W 009°06'1 1.3
2017-Mar-18 12:33N 38°39' W 009°05'0 0.0
2017-Mar-18 11:33N 38°39' W 009°05'3 2.9
2017-Mar-18 10:34N 38°41' W 009°08'0 0.1
2017-Mar-18 09:33N 38°41' W 009°08'0 0.5
2017-Mar-18 08:34N 38°41' W 009°08'3 3.3
2017-Mar-18 07:33N 38°39' W 009°05'0 0.3
2017-Mar-18 06:34N 38°39' W 009°05'0 0.3
2017-Mar-18 05:33N 38°39' W 009°05'0 0.0
2017-Mar-18 04:33N 38°39' W 009°05'0 0.0
2017-Mar-18 03:33N 38°39' W 009°05'0 0.0
2017-Mar-18 02:33N 38°39' W 009°05'0 0.0
2017-Mar-18 01:33N 38°39' W 009°05'0 0.0
2017-Mar-18 00:32N 38°39' W 009°05'3 3.6
2017-Mar-17 23:33N 38°42' W 009°08'1 1.2
2017-Mar-17 22:33N 38°41' W 009°08'0 0.0
2017-Mar-17 21:33N 38°41' W 009°08'  
Track history (hours):
 
Tides and Currents Weather Stations Pressure Air Temp Water Temp Dewpoint Dewpoint Depression Visibility Wind Speed Wind Dir Waves Ship Positions

Fernando Pessoa

Last reported at 2017-Mar-27 21:33 UTC. Time now 2017-Mar-28 02:31 UTC.
Position N 38°39' W 009°05'.

Length 49 m.

MMSI: 263701470.

Date/timePositionNaut miles runAvg speedWind from/ knotsBaromVisibWave heightAir tempDewpointWater temp
2017-Mar-27 21:33N 38°39' W 009°05'0 0.0
2017-Mar-27 20:33N 38°39' W 009°05'0 0.1
2017-Mar-27 19:33N 38°39' W 009°05'4 3.6
2017-Mar-27 18:33N 38°42' W 009°08'2 1.8
2017-Mar-27 17:34N 38°40' W 009°07'2 2.0
2017-Mar-27 16:33N 38°39' W 009°05'0 0.0
2017-Mar-27 15:33N 38°39' W 009°05'0 0.0
2017-Mar-27 14:33N 38°39' W 009°05'0 0.1
2017-Mar-27 13:31N 38°39' W 009°05'0 0.0
2017-Mar-27 12:32N 38°39' W 009°05'0 0.0
2017-Mar-27 11:33N 38°39' W 009°05'0 0.0
2017-Mar-27 10:33N 38°39' W 009°05'0 0.1
2017-Mar-27 09:33N 38°39' W 009°05'1 1.3
2017-Mar-27 08:34N 38°40' W 009°06'1 0.6
2017-Mar-27 07:33N 38°39' W 009°06'1 0.8
2017-Mar-27 06:33N 38°39' W 009°05'0 0.0
2017-Mar-25 22:33N 38°39' W 009°05'2 1.7
2017-Mar-25 21:33N 38°40' W 009°07'0 0.4
2017-Mar-25 20:33N 38°40' W 009°06'1 1.2
2017-Mar-25 19:34N 38°41' W 009°08'0 0.0
2017-Mar-25 18:34N 38°41' W 009°08'0 0.4
2017-Mar-25 17:33N 38°41' W 009°08'0 0.3
2017-Mar-25 16:33N 38°41' W 009°08'0 0.1
2017-Mar-25 15:33N 38°41' W 009°08'3 2.8
2017-Mar-25 14:33N 38°39' W 009°05'0 0.0
2017-Mar-25 13:33N 38°39' W 009°05'2 1.6
2017-Mar-25 12:33N 38°40' W 009°07'0 0.2
2017-Mar-25 11:34N 38°40' W 009°07'0 0.3
2017-Mar-25 10:33N 38°40' W 009°06'0 0.1
2017-Mar-25 09:33N 38°40' W 009°07'0 0.1
2017-Mar-25 08:34N 38°40' W 009°06'0 0.1
2017-Mar-25 07:33N 38°40' W 009°06'1 1.4
2017-Mar-25 06:33N 38°41' W 009°08'1 0.9
2017-Mar-25 05:34N 38°42' W 009°08'4 1.2
2017-Mar-25 02:26N 38°39' W 009°05'0 0.3
2017-Mar-25 01:33N 38°39' W 009°05'0 0.1
2017-Mar-25 00:33N 38°39' W 009°05'0 0.2
2017-Mar-24 23:33N 38°39' W 009°05'1 1.1
2017-Mar-24 22:33N 38°40' W 009°06'0 0.4
2017-Mar-24 21:33N 38°40' W 009°07'2 1.7
2017-Mar-24 20:34N 38°39' W 009°05'0 0.0
2017-Mar-24 19:33N 38°39' W 009°05'2 2.0
2017-Mar-24 18:33N 38°40' W 009°07'2 2.2
2017-Mar-24 17:33N 38°42' W 009°08'0 0.2
2017-Mar-24 16:34N 38°42' W 009°08'1 1.0
2017-Mar-24 15:33N 38°41' W 009°08'0 0.1
2017-Mar-24 14:33N 38°41' W 009°08'0 0.2
2017-Mar-24 13:34N 38°41' W 009°08'0 0.1
2017-Mar-24 12:33N 38°41' W 009°08'0 0.5
2017-Mar-24 11:33N 38°40' W 009°08'3 2.6
2017-Mar-24 10:33N 38°39' W 009°05'2 2.4
2017-Mar-24 09:33N 38°40' W 009°07'2 2.1
2017-Mar-24 08:33N 38°42' W 009°08'1 0.7
2017-Mar-24 07:33N 38°42' W 009°08'3 3.3
2017-Mar-24 06:33N 38°39' W 009°05'0 0.0
2017-Mar-23 21:27N 38°39' W 009°05'3 3.0
2017-Mar-23 20:34N 38°41' W 009°08'3 2.7
2017-Mar-23 19:33N 38°39' W 009°05'0 0.0
2017-Mar-23 18:33N 38°39' W 009°05'4 4.1
2017-Mar-23 17:33N 38°42' W 009°08'1 1.2
2017-Mar-23 16:33N 38°41' W 009°08'3 3.1
2017-Mar-23 15:33N 38°39' W 009°05'2 2.1
2017-Mar-23 14:34N 38°40' W 009°07'0 0.4
2017-Mar-23 13:33N 38°40' W 009°07'0 0.2
2017-Mar-23 12:33N 38°40' W 009°07'0 0.0
2017-Mar-23 11:34N 38°40' W 009°07'3 2.7
2017-Mar-23 10:33N 38°42' W 009°08'4 4.0
2017-Mar-23 09:33N 38°39' W 009°05'0 0.0
2017-Mar-23 08:33N 38°39' W 009°05'0 0.0
2017-Mar-23 07:33N 38°39' W 009°05'0 0.0
2017-Mar-23 06:33N 38°39' W 009°05'0 0.0
2017-Mar-23 05:33N 38°39' W 009°05'0 0.0
2017-Mar-23 04:33N 38°39' W 009°05'0 0.0
2017-Mar-23 03:33N 38°39' W 009°05'0 0.0
2017-Mar-23 02:33N 38°39' W 009°05'0 0.0
2017-Mar-23 01:33N 38°39' W 009°05'0 0.0
2017-Mar-23 00:33N 38°39' W 009°05'0 0.0
2017-Mar-22 23:33N 38°39' W 009°05'0 0.0
2017-Mar-22 22:33N 38°39' W 009°05'0 0.0
2017-Mar-22 21:33N 38°39' W 009°05'3 2.9
2017-Mar-22 20:34N 38°41' W 009°08'2 2.1
2017-Mar-22 19:33N 38°39' W 009°06'3 2.9
2017-Mar-22 18:33N 38°42' W 009°08'1 0.5
2017-Mar-22 17:34N 38°42' W 009°08'2 1.7
2017-Mar-22 16:33N 38°41' W 009°08'3 2.8
2017-Mar-22 15:33N 38°39' W 009°05'1 1.2
2017-Mar-22 14:33N 38°40' W 009°06'0 0.4
2017-Mar-22 13:32N 38°39' W 009°06'1 0.7
2017-Mar-22 12:33N 38°39' W 009°05'0 0.0
2017-Mar-22 11:33N 38°39' W 009°05'2 2.5
2017-Mar-22 10:34N 38°41' W 009°08'3 2.6
2017-Mar-22 09:34N 38°39' W 009°05'1 1.2
2017-Mar-22 08:33N 38°40' W 009°06'2 2.4
2017-Mar-22 07:34N 38°42' W 009°08'1 0.7
2017-Mar-22 06:34N 38°42' W 009°08'0 0.0
2017-Mar-22 05:34N 38°42' W 009°08'4 4.1
2017-Mar-22 04:33N 38°39' W 009°05'0 0.0
2017-Mar-22 03:33N 38°39' W 009°05'0 0.0
2017-Mar-22 02:30N 38°39' W 009°05'0 0.4
2017-Mar-22 01:33N 38°39' W 009°05'0 0.2
2017-Mar-22 00:34N 38°39' W 009°05'0 0.0
2017-Mar-21 23:33N 38°39' W 009°05'1 1.2
2017-Mar-21 22:33N 38°40' W 009°07'0 0.1
2017-Mar-21 21:33N 38°40' W 009°07'2 1.7
2017-Mar-21 20:33N 38°39' W 009°05'0 0.0
2017-Mar-21 19:32N 38°39' W 009°05'1 1.1
2017-Mar-21 18:33N 38°39' W 009°06'3 3.2
2017-Mar-21 17:33N 38°42' W 009°08'0 0.1
2017-Mar-21 16:34N 38°42' W 009°08'2 1.5
2017-Mar-21 15:33N 38°41' W 009°08'0 0.1
2017-Mar-21 14:33N 38°41' W 009°08'0 0.2
2017-Mar-21 13:33N 38°41' W 009°07'0 0.1
2017-Mar-21 12:33N 38°41' W 009°08'0 0.1
2017-Mar-21 11:33N 38°40' W 009°08'3 2.7
2017-Mar-21 10:33N 38°39' W 009°05'4 4.2
2017-Mar-21 09:33N 38°42' W 009°08'0 0.2
2017-Mar-21 08:33N 38°42' W 009°08'4 1.9
2017-Mar-21 06:33N 38°39' W 009°05'4 0.4
2017-Mar-20 20:33N 38°42' W 009°08'0 0.1
2017-Mar-20 19:33N 38°42' W 009°08'0 0.4
2017-Mar-20 18:34N 38°42' W 009°08'3 2.6
2017-Mar-20 17:33N 38°40' W 009°07'2 1.7
2017-Mar-20 16:32N 38°39' W 009°05'1 1.3
2017-Mar-20 15:33N 38°40' W 009°06'1 1.3
2017-Mar-20 14:33N 38°39' W 009°05'0 0.0
2017-Mar-20 13:34N 38°39' W 009°05'0 0.0
2017-Mar-20 12:34N 38°39' W 009°05'0 0.0
2017-Mar-20 11:33N 38°39' W 009°05'2 1.6
2017-Mar-20 10:34N 38°40' W 009°07'0 0.2
2017-Mar-20 09:33N 38°40' W 009°06'1 1.2
2017-Mar-20 08:34N 38°41' W 009°08'3 2.6
2017-Mar-20 07:33N 38°39' W 009°05'0 0.0
2017-Mar-20 06:33N 38°39' W 009°05'0 0.0
2017-Mar-20 05:33N 38°39' W 009°05'0 0.0
2017-Mar-20 04:33N 38°39' W 009°05'0 0.0
2017-Mar-20 03:33N 38°39' W 009°05'0 0.0
2017-Mar-20 02:33N 38°39' W 009°05'0 0.0
2017-Mar-20 01:33N 38°39' W 009°05'0 0.0
2017-Mar-20 00:33N 38°39' W 009°05'3 0.9
2017-Mar-19 21:33N 38°41' W 009°08'3 2.7
2017-Mar-19 20:34N 38°39' W 009°05'2 2.0
2017-Mar-19 19:33N 38°40' W 009°07'0 0.3
2017-Mar-19 18:33N 38°40' W 009°07'0 0.0
2017-Mar-19 17:34N 38°40' W 009°07'0 0.1
2017-Mar-19 16:33N 38°40' W 009°07'0 0.2
2017-Mar-19 15:33N 38°40' W 009°07'0 0.3
2017-Mar-19 14:33N 38°40' W 009°06'0 0.3
2017-Mar-19 13:33N 38°39' W 009°06'1 0.9
2017-Mar-19 12:33N 38°39' W 009°05'0 0.0
2017-Mar-19 11:33N 38°39' W 009°05'0 0.0
2017-Mar-19 10:33N 38°39' W 009°05'0 0.0
2017-Mar-19 09:33N 38°39' W 009°05'4 3.5
2017-Mar-19 08:32N 38°42' W 009°07'4 3.6
2017-Mar-19 07:34N 38°39' W 009°05'0 0.3
2017-Mar-19 06:33N 38°39' W 009°05'0 0.3
2017-Mar-19 05:33N 38°39' W 009°05'0 0.0
2017-Mar-18 22:07N 38°39' W 009°05'3 4.9
2017-Mar-18 21:33N 38°41' W 009°08'3 2.8
2017-Mar-18 20:33N 38°39' W 009°05'2 2.0
2017-Mar-18 19:33N 38°40' W 009°07'0 0.4
2017-Mar-18 18:34N 38°40' W 009°07'0 0.3
2017-Mar-18 17:33N 38°40' W 009°07'0 0.1
2017-Mar-18 16:34N 38°40' W 009°07'0 0.2
2017-Mar-18 15:33N 38°40' W 009°07'1 1.1
2017-Mar-18 14:33N 38°39' W 009°05'1 0.9
2017-Mar-18 13:34N 38°40' W 009°06'1 1.3
2017-Mar-18 12:33N 38°39' W 009°05'0 0.0
2017-Mar-18 11:33N 38°39' W 009°05'3 2.9
2017-Mar-18 10:34N 38°41' W 009°08'0 0.1
2017-Mar-18 09:33N 38°41' W 009°08'0 0.5
2017-Mar-18 08:34N 38°41' W 009°08'3 3.3
2017-Mar-18 07:33N 38°39' W 009°05'0 0.3
2017-Mar-18 06:34N 38°39' W 009°05'0 0.3
2017-Mar-18 05:33N 38°39' W 009°05'0 0.0
2017-Mar-18 04:33N 38°39' W 009°05'0 0.0
2017-Mar-18 03:33N 38°39' W 009°05'0 0.0
2017-Mar-18 02:33N 38°39' W 009°05'0 0.0
2017-Mar-18 01:33N 38°39' W 009°05'0 0.0
2017-Mar-18 00:32N 38°39' W 009°05'3 3.6
2017-Mar-17 23:33N 38°42' W 009°08'1 1.2
2017-Mar-17 22:33N 38°41' W 009°08'0 0.0
2017-Mar-17 21:33N 38°41' W 009°08'  

Dump ship's entire track history